createdAt,value
2023-03-29T00:01:06.536Z,20.19
2023-03-29T00:03:35.081Z,20.19
2023-03-29T00:06:05.436Z,20.19
2023-03-29T00:08:35.024Z,20.18
2023-03-29T00:11:05.430Z,20.18
2023-03-29T00:13:34.330Z,20.17
2023-03-29T00:16:02.871Z,20.16
2023-03-29T00:18:31.367Z,20.16
2023-03-29T00:21:01.053Z,20.16
2023-03-29T00:23:29.691Z,20.15
2023-03-29T00:25:58.328Z,20.15
2023-03-29T00:28:28.127Z,20.15
2023-03-29T00:31:06.097Z,20.16
2023-03-29T00:33:35.249Z,20.15
2023-03-29T00:36:04.808Z,20.15
2023-03-29T00:38:33.856Z,20.16
2023-03-29T00:41:03.792Z,20.16
2023-03-29T00:43:59.087Z,20.15
2023-03-29T00:46:29.856Z,20.15
2023-03-29T00:49:04.506Z,20.15
2023-03-29T00:51:36.692Z,20.15
2023-03-29T00:54:08.592Z,20.17
2023-03-29T00:56:39.706Z,20.14
2023-03-29T00:59:13.734Z,20.13
2023-03-29T01:01:50.430Z,20.15
2023-03-29T01:04:24.926Z,20.13
2023-03-29T01:06:58.149Z,20.13
2023-03-29T01:09:30.232Z,20.13
2023-03-29T01:12:02.742Z,20.15
2023-03-29T01:14:36.778Z,20.14
2023-03-29T01:17:06.544Z,20.14
2023-03-29T01:19:39.981Z,20.13
2023-03-29T01:22:22.418Z,20.13
2023-03-29T01:25:06.040Z,20.13
2023-03-29T01:27:48.670Z,20.13
2023-03-29T01:30:22.386Z,20.13
2023-03-29T01:32:56.901Z,20.13
2023-03-29T01:35:32.483Z,20.12
2023-03-29T01:38:07.309Z,20.11
2023-03-29T01:40:36.177Z,20.11
2023-03-29T01:43:14.496Z,20.10
2023-03-29T01:45:48.825Z,20.10
2023-03-29T01:48:25.452Z,20.11
2023-03-29T01:51:00.064Z,20.09
2023-03-29T01:53:35.648Z,20.09
2023-03-29T01:56:08.645Z,20.10
2023-03-29T01:58:42.743Z,20.10
2023-03-29T02:01:17.706Z,20.07
2023-03-29T02:03:50.694Z,20.09
2023-03-29T02:06:24.662Z,20.09
2023-03-29T02:08:54.354Z,20.09
2023-03-29T02:11:24.516Z,20.00
2023-03-29T02:13:54.421Z,20.09
2023-03-29T02:16:23.203Z,20.08
2023-03-29T02:18:54.108Z,20.08
2023-03-29T02:21:27.671Z,20.08
2023-03-29T02:23:57.208Z,20.07
2023-03-29T02:26:26.293Z,20.07
2023-03-29T02:28:56.387Z,20.07
2023-03-29T02:31:30.277Z,20.06
2023-03-29T02:34:03.353Z,20.06
2023-03-29T02:36:40.416Z,20.06
2023-03-29T02:39:13.648Z,20.04
2023-03-29T02:41:45.294Z,20.06
2023-03-29T02:44:19.437Z,20.05
2023-03-29T02:46:51.394Z,20.05
2023-03-29T02:49:20.375Z,20.06
2023-03-29T02:51:52.589Z,20.05
2023-03-29T02:54:25.848Z,20.05
2023-03-29T02:56:58.913Z,20.04
2023-03-29T02:59:30.867Z,20.04
2023-03-29T03:01:59.442Z,20.04
2023-03-29T03:04:29.536Z,20.04
2023-03-29T03:06:58.079Z,20.02
2023-03-29T03:09:27.507Z,20.03
2023-03-29T03:11:56.153Z,20.03
2023-03-29T03:14:28.222Z,20.03
2023-03-29T03:16:59.085Z,20.03
2023-03-29T03:19:27.683Z,20.03
2023-03-29T03:21:56.895Z,20.03
2023-03-29T03:24:25.403Z,20.02
2023-03-29T03:26:54.471Z,20.01
2023-03-29T03:29:23.242Z,20.02
2023-03-29T03:32:12.329Z,20.02
2023-03-29T03:34:59.623Z,20.02
2023-03-29T03:37:29.568Z,20.01
2023-03-29T03:39:58.110Z,20.01
2023-03-29T03:42:28.788Z,20.01
2023-03-29T03:44:58.084Z,20.02
2023-03-29T03:47:46.830Z,20.01
2023-03-29T03:50:31.290Z,20.01
2023-03-29T03:52:59.886Z,19.99
2023-03-29T03:55:36.836Z,20.01
2023-03-29T03:58:12.623Z,20.00
2023-03-29T04:00:41.774Z,20.01
2023-03-29T04:03:26.042Z,20.00
2023-03-29T04:05:54.641Z,20.01
2023-03-29T04:08:27.212Z,20.01
2023-03-29T04:11:10.493Z,19.99
2023-03-29T04:13:42.277Z,19.99
2023-03-29T04:16:31.477Z,20.00
2023-03-29T04:19:12.899Z,20.01
2023-03-29T04:21:42.834Z,19.99
2023-03-29T04:24:11.321Z,19.99
2023-03-29T04:26:42.784Z,19.99
2023-03-29T04:29:18.933Z,19.99
2023-03-29T04:31:52.052Z,20.01
2023-03-29T04:34:38.426Z,20.01
2023-03-29T04:37:10.439Z,20.00
2023-03-29T04:39:39.278Z,20.01
2023-03-29T04:42:09.500Z,20.02
2023-03-29T04:44:38.048Z,20.03
2023-03-29T04:47:12.978Z,20.06
2023-03-29T04:49:56.077Z,20.07
2023-03-29T04:52:40.856Z,20.08
2023-03-29T04:55:10.337Z,20.07
2023-03-29T04:57:53.335Z,20.04
2023-03-29T05:00:27.445Z,20.05
2023-03-29T05:03:14.877Z,20.08
2023-03-29T05:06:06.566Z,20.09
2023-03-29T05:08:38.952Z,20.08
2023-03-29T05:11:27.605Z,20.10
2023-03-29T05:14:00.700Z,20.12
2023-03-29T05:16:30.686Z,20.14
2023-03-29T05:19:00.224Z,20.17
2023-03-29T05:21:30.246Z,20.17
2023-03-29T05:24:02.841Z,20.20
2023-03-29T05:26:51.785Z,20.20
2023-03-29T05:29:20.659Z,20.21
2023-03-29T05:31:55.598Z,20.22
2023-03-29T05:34:25.069Z,20.23
2023-03-29T05:36:59.107Z,20.29
2023-03-29T05:39:31.464Z,20.46
2023-03-29T05:42:00.933Z,20.63
2023-03-29T05:44:33.192Z,20.76
2023-03-29T05:47:11.322Z,20.89
2023-03-29T05:49:39.867Z,21.06
2023-03-29T05:52:16.077Z,21.27
2023-03-29T05:54:44.834Z,21.53
2023-03-29T05:57:14.016Z,21.76
2023-03-29T05:59:42.836Z,21.91
2023-03-29T06:02:12.592Z,22.04
2023-03-29T06:04:46.759Z,22.16
2023-03-29T06:07:25.502Z,22.29
2023-03-29T06:10:23.492Z,22.40
2023-03-29T06:12:57.602Z,22.47
2023-03-29T06:15:26.893Z,22.53
2023-03-29T06:20:30.320Z,22.67
2023-03-29T06:23:06.179Z,22.70
2023-03-29T06:25:35.261Z,22.76
2023-03-29T06:28:03.966Z,22.80
2023-03-29T06:30:32.866Z,22.85
2023-03-29T06:33:02.252Z,22.87
2023-03-29T06:35:49.406Z,22.85
2023-03-29T06:38:23.304Z,22.81
2023-03-29T06:41:05.208Z,22.80
2023-03-29T06:43:54.965Z,22.82
2023-03-29T06:46:27.056Z,22.84
2023-03-29T06:48:58.077Z,22.85
2023-03-29T06:51:34.636Z,22.87
2023-03-29T06:54:05.350Z,22.90
2023-03-29T06:56:34.201Z,22.91
2023-03-29T06:59:09.252Z,22.91
2023-03-29T07:01:49.187Z,22.95
2023-03-29T07:04:27.678Z,22.98
2023-03-29T07:07:24.219Z,23.04
2023-03-29T07:10:10.448Z,23.05
2023-03-29T07:12:57.474Z,23.09
2023-03-29T07:15:27.564Z,23.10
2023-03-29T07:18:22.149Z,23.13
2023-03-29T07:20:52.139Z,23.17
2023-03-29T07:23:21.348Z,23.22
2023-03-29T07:25:54.066Z,23.34
2023-03-29T07:28:22.747Z,23.33
2023-03-29T07:30:54.954Z,23.28
2023-03-29T07:33:24.284Z,23.26
2023-03-29T07:36:06.937Z,23.24
2023-03-29T07:38:36.800Z,23.21
2023-03-29T07:41:12.886Z,23.18
2023-03-29T07:44:04.850Z,23.18
2023-03-29T07:46:33.409Z,23.18
2023-03-29T07:49:01.933Z,23.18
2023-03-29T07:51:31.054Z,23.17
2023-03-29T07:54:06.298Z,23.16
2023-03-29T07:56:54.679Z,23.18
2023-03-29T07:59:30.944Z,23.17
2023-03-29T08:02:16.465Z,23.16
2023-03-29T08:04:50.687Z,23.11
2023-03-29T08:07:21.037Z,23.05
2023-03-29T08:10:10.695Z,23.02
2023-03-29T08:13:16.248Z,23.02
2023-03-29T08:16:11.220Z,23.04
2023-03-29T08:18:45.863Z,23.05
2023-03-29T08:21:15.866Z,23.06
2023-03-29T08:23:48.472Z,23.09
2023-03-29T08:26:27.730Z,23.12
2023-03-29T08:28:59.533Z,23.14
2023-03-29T08:31:29.382Z,23.14
2023-03-29T08:33:58.037Z,23.14
2023-03-29T08:36:55.707Z,23.15
2023-03-29T08:39:35.001Z,23.15
2023-03-29T08:42:35.403Z,23.15
2023-03-29T08:45:14.638Z,23.14
2023-03-29T08:47:53.634Z,23.14
2023-03-29T08:50:33.710Z,23.10
2023-03-29T08:53:07.742Z,23.08
2023-03-29T08:55:58.383Z,23.09
2023-03-29T08:58:52.639Z,23.08
2023-03-29T09:01:24.418Z,23.08
2023-03-29T09:04:05.740Z,23.07
2023-03-29T09:06:55.041Z,23.08
2023-03-29T09:09:32.762Z,23.06
2023-03-29T09:12:20.053Z,23.03
2023-03-29T09:15:00.808Z,22.98
2023-03-29T09:17:40.193Z,22.97
2023-03-29T09:20:24.442Z,22.92
2023-03-29T09:23:03.294Z,22.89
2023-03-29T09:25:54.074Z,22.85
2023-03-29T09:28:36.988Z,22.84
2023-03-29T09:31:07.833Z,22.84
2023-03-29T09:33:42.946Z,22.82
2023-03-29T09:36:23.988Z,22.81
2023-03-29T09:38:55.558Z,22.82
2023-03-29T09:41:31.584Z,22.82
2023-03-29T09:44:12.709Z,22.81
2023-03-29T09:46:54.211Z,22.78
2023-03-29T09:49:31.104Z,22.76
2023-03-29T09:52:05.787Z,22.74
2023-03-29T09:54:34.498Z,22.72
2023-03-29T09:57:21.589Z,22.68
2023-03-29T09:59:52.500Z,22.63
2023-03-29T10:02:22.135Z,22.59
2023-03-29T10:04:58.703Z,22.55
2023-03-29T10:07:36.001Z,22.52
2023-03-29T10:10:10.444Z,22.46
2023-03-29T10:12:42.593Z,22.40
2023-03-29T10:15:26.818Z,22.34
2023-03-29T10:18:00.674Z,22.27
2023-03-29T10:20:30.989Z,22.25
2023-03-29T10:23:00.711Z,22.21
2023-03-29T10:25:31.703Z,22.19
2023-03-29T10:28:06.953Z,22.13
2023-03-29T10:30:38.532Z,22.11
2023-03-29T10:33:16.107Z,22.07
2023-03-29T10:35:48.879Z,22.03
2023-03-29T10:38:19.715Z,21.98
2023-03-29T10:40:50.300Z,21.94
2023-03-29T10:43:23.392Z,21.91
2023-03-29T10:45:53.746Z,21.88
2023-03-29T10:48:26.485Z,21.81
2023-03-29T10:50:59.847Z,21.80
2023-03-29T10:53:32.409Z,21.78
2023-03-29T10:56:25.491Z,21.74
2023-03-29T10:59:18.295Z,21.70
2023-03-29T11:01:53.743Z,21.68
2023-03-29T11:04:29.449Z,21.65
2023-03-29T11:07:19.672Z,21.62
2023-03-29T11:09:56.139Z,21.61
2023-03-29T11:12:32.345Z,21.60
2023-03-29T11:15:19.525Z,21.58
2023-03-29T11:18:03.346Z,21.57
2023-03-29T11:20:41.816Z,21.55
2023-03-29T11:23:25.439Z,21.53
2023-03-29T11:26:03.981Z,21.51
2023-03-29T11:28:42.270Z,21.50
2023-03-29T11:31:20.194Z,21.48
2023-03-29T11:33:57.555Z,21.49
2023-03-29T11:36:32.891Z,21.51
2023-03-29T11:39:13.186Z,21.52
2023-03-29T11:41:45.188Z,21.53
2023-03-29T11:44:18.783Z,21.54
2023-03-29T11:46:53.148Z,21.55
2023-03-29T11:49:27.736Z,21.56
2023-03-29T11:52:03.134Z,21.56
2023-03-29T11:54:39.526Z,21.55
2023-03-29T11:57:15.461Z,21.54
2023-03-29T11:59:55.365Z,21.54
2023-03-29T12:02:29.490Z,21.55
2023-03-29T12:05:03.343Z,21.52
2023-03-29T12:07:36.753Z,21.51
2023-03-29T12:10:15.540Z,21.49
2023-03-29T12:12:56.151Z,21.46
2023-03-29T12:15:26.896Z,21.44
2023-03-29T12:18:06.977Z,21.42
2023-03-29T12:20:39.702Z,21.37
2023-03-29T12:23:15.722Z,21.34
2023-03-29T12:25:54.170Z,21.32
2023-03-29T12:28:34.439Z,21.26
2023-03-29T12:31:12.910Z,21.26
2023-03-29T12:34:07.056Z,21.23
2023-03-29T12:37:07.505Z,21.21
2023-03-29T12:39:48.810Z,21.18
2023-03-29T12:42:46.153Z,21.17
2023-03-29T12:45:35.623Z,21.14
2023-03-29T12:48:05.053Z,21.11
2023-03-29T12:50:35.984Z,21.10
2023-03-29T12:53:07.436Z,21.09
2023-03-29T12:55:49.494Z,21.07
2023-03-29T12:58:42.914Z,21.05
2023-03-29T13:01:24.037Z,21.04
2023-03-29T13:03:58.291Z,21.02
2023-03-29T13:06:32.654Z,21.01
2023-03-29T13:09:03.612Z,21.00
2023-03-29T13:11:39.922Z,21.00
2023-03-29T13:14:15.610Z,20.97
2023-03-29T13:16:44.243Z,20.95
2023-03-29T13:19:30.506Z,20.95
2023-03-29T13:22:10.647Z,20.95
2023-03-29T13:24:50.386Z,20.95
2023-03-29T13:27:30.308Z,20.94
2023-03-29T13:30:16.646Z,20.94
2023-03-29T13:32:52.503Z,20.94
2023-03-29T13:35:31.963Z,20.93
2023-03-29T13:38:11.039Z,20.93
2023-03-29T13:40:46.891Z,20.92
2023-03-29T13:43:30.940Z,20.92
2023-03-29T13:46:21.071Z,20.91
2023-03-29T13:49:04.783Z,20.92
2023-03-29T13:51:37.999Z,20.92
2023-03-29T13:54:23.059Z,20.92
2023-03-29T13:57:01.384Z,20.90
2023-03-29T13:59:36.426Z,20.90
2023-03-29T14:02:07.419Z,20.89
2023-03-29T14:04:42.132Z,20.90
2023-03-29T14:07:15.436Z,20.90
2023-03-29T14:09:46.481Z,20.91
2023-03-29T14:12:15.981Z,20.92
2023-03-29T14:14:58.407Z,20.91
2023-03-29T14:17:29.554Z,20.92
2023-03-29T14:19:59.449Z,20.90
2023-03-29T14:22:33.762Z,20.85
2023-03-29T14:25:06.352Z,20.84
2023-03-29T14:27:37.748Z,20.85
2023-03-29T14:30:21.545Z,20.85
2023-03-29T14:32:52.433Z,20.87
2023-03-29T14:35:30.149Z,20.87
2023-03-29T14:37:59.972Z,20.89
2023-03-29T14:40:28.596Z,20.89
2023-03-29T14:42:57.170Z,20.90
2023-03-29T14:45:26.276Z,20.90
2023-03-29T14:47:56.378Z,20.91
2023-03-29T14:50:28.400Z,20.91
2023-03-29T14:52:58.586Z,20.92
2023-03-29T14:55:27.460Z,20.93
2023-03-29T14:57:56.940Z,20.92
2023-03-29T15:00:30.109Z,20.93
2023-03-29T15:03:02.563Z,20.94
2023-03-29T15:05:38.552Z,20.93
2023-03-29T15:08:11.594Z,20.93
2023-03-29T15:10:42.977Z,20.92
2023-03-29T15:13:19.755Z,20.91
2023-03-29T15:15:52.433Z,20.91
2023-03-29T15:18:28.216Z,20.92
2023-03-29T15:20:56.873Z,20.92
2023-03-29T15:23:26.504Z,20.92
2023-03-29T15:25:58.326Z,20.93
2023-03-29T15:28:30.974Z,20.92
2023-03-29T15:31:07.643Z,20.91
2023-03-29T15:33:40.394Z,20.93
2023-03-29T15:36:11.031Z,20.92
2023-03-29T15:38:44.570Z,20.92
2023-03-29T15:41:14.560Z,20.92
2023-03-29T15:43:43.926Z,20.92
2023-03-29T15:46:14.112Z,20.91
2023-03-29T15:48:44.238Z,20.90
2023-03-29T15:51:13.454Z,20.91
2023-03-29T15:53:42.760Z,20.91
2023-03-29T15:56:17.155Z,20.91
2023-03-29T15:58:46.491Z,20.91
2023-03-29T16:01:34.259Z,20.90
2023-03-29T16:04:05.430Z,20.92
2023-03-29T16:06:36.062Z,20.93
2023-03-29T16:09:06.173Z,20.93
2023-03-29T16:11:35.299Z,20.93
2023-03-29T16:14:03.984Z,20.92
2023-03-29T16:16:32.646Z,20.90
2023-03-29T16:19:01.110Z,20.91
2023-03-29T16:21:30.958Z,20.92
2023-03-29T16:23:59.453Z,20.90
2023-03-29T16:26:28.026Z,20.88
2023-03-29T16:28:56.430Z,20.90
2023-03-29T16:31:26.927Z,20.89
2023-03-29T16:33:55.762Z,20.91
2023-03-29T16:36:24.240Z,20.89
2023-03-29T16:38:54.427Z,20.89
2023-03-29T16:41:23.079Z,20.90
2023-03-29T16:43:51.573Z,20.91
2023-03-29T16:46:20.861Z,20.89
2023-03-29T16:48:51.361Z,20.89
2023-03-29T16:51:20.054Z,20.90
2023-03-29T16:53:49.112Z,20.89
2023-03-29T16:56:19.819Z,20.90
2023-03-29T16:58:48.293Z,20.90
2023-03-29T17:01:17.734Z,20.89
2023-03-29T17:03:46.177Z,20.88
2023-03-29T17:06:14.785Z,20.88
2023-03-29T17:08:43.394Z,20.88
2023-03-29T17:11:13.047Z,20.88
2023-03-29T17:13:43.421Z,20.89
2023-03-29T17:16:11.937Z,20.88
2023-03-29T17:18:40.366Z,20.88
2023-03-29T17:21:09.177Z,20.90
2023-03-29T17:23:37.642Z,20.90
2023-03-29T17:26:07.000Z,20.90
2023-03-29T17:28:36.093Z,20.91
2023-03-29T17:31:08.126Z,20.91
2023-03-29T17:33:36.875Z,20.91
2023-03-29T17:36:07.317Z,20.89
2023-03-29T17:38:37.917Z,20.89
2023-03-29T17:41:06.996Z,20.86
2023-03-29T17:43:35.599Z,20.84
2023-03-29T17:46:04.532Z,20.84
2023-03-29T17:48:34.928Z,20.83
2023-03-29T17:51:03.432Z,20.80
2023-03-29T17:53:31.979Z,20.81
2023-03-29T17:56:00.859Z,20.80
2023-03-29T17:58:29.473Z,20.79
2023-03-29T18:00:58.006Z,20.78
2023-03-29T18:03:27.079Z,20.78
2023-03-29T18:05:57.294Z,20.77
2023-03-29T18:08:25.862Z,20.76
2023-03-29T18:10:54.308Z,20.75
2023-03-29T18:13:25.338Z,20.73
2023-03-29T18:15:56.428Z,20.74
2023-03-29T18:18:24.982Z,20.74
2023-03-29T18:20:53.573Z,20.73
2023-03-29T18:23:23.375Z,20.72
2023-03-29T18:25:52.117Z,20.72
2023-03-29T18:28:20.610Z,20.73
2023-03-29T18:30:51.558Z,20.76
2023-03-29T18:33:20.066Z,20.77
2023-03-29T18:35:50.509Z,20.78
2023-03-29T18:38:20.895Z,20.78
2023-03-29T18:40:51.509Z,20.80
2023-03-29T18:43:20.045Z,20.80
2023-03-29T18:45:48.761Z,20.81
2023-03-29T18:48:17.297Z,20.81
2023-03-29T18:50:46.428Z,20.82
2023-03-29T18:53:15.498Z,20.82
2023-03-29T18:55:44.525Z,20.82
2023-03-29T18:58:15.959Z,20.82
2023-03-29T19:00:44.729Z,20.83
2023-03-29T19:03:13.536Z,20.83
2023-03-29T19:05:42.345Z,20.82
2023-03-29T19:08:11.139Z,20.83
2023-03-29T19:10:40.477Z,20.83
2023-03-29T19:13:08.988Z,20.83
2023-03-29T19:15:40.441Z,20.82
2023-03-29T19:18:09.089Z,20.83
2023-03-29T19:20:38.362Z,20.84
2023-03-29T19:23:06.825Z,20.84
2023-03-29T19:25:35.355Z,20.84
2023-03-29T19:28:04.930Z,20.83
2023-03-29T19:30:36.472Z,20.83
2023-03-29T19:33:06.311Z,20.83
2023-03-29T19:35:35.097Z,20.84
2023-03-29T19:38:03.755Z,20.84
2023-03-29T19:40:32.267Z,20.84
2023-03-29T19:43:00.822Z,20.84
2023-03-29T19:45:29.460Z,20.84
2023-03-29T19:48:02.942Z,20.85
2023-03-29T19:50:33.481Z,20.84
2023-03-29T19:53:01.880Z,20.84
2023-03-29T19:55:30.366Z,20.82
2023-03-29T19:57:58.950Z,20.80
2023-03-29T20:00:27.550Z,20.77
2023-03-29T20:02:56.533Z,20.76
2023-03-29T20:05:25.069Z,20.74
2023-03-29T20:07:55.374Z,20.73
2023-03-29T20:10:23.902Z,20.71
2023-03-29T20:12:52.407Z,20.70
2023-03-29T20:15:20.850Z,20.68
2023-03-29T20:17:51.308Z,20.67
2023-03-29T20:20:21.196Z,20.66
2023-03-29T20:22:49.693Z,20.64
2023-03-29T20:25:19.604Z,20.63
2023-03-29T20:27:49.334Z,20.61
2023-03-29T20:30:18.274Z,20.61
2023-03-29T20:32:47.180Z,20.60
2023-03-29T20:35:16.462Z,20.59
2023-03-29T20:37:44.973Z,20.58
2023-03-29T20:40:15.517Z,20.57
2023-03-29T20:42:46.263Z,20.57
2023-03-29T20:45:19.271Z,20.56
2023-03-29T20:47:57.405Z,20.56
2023-03-29T20:50:29.620Z,20.57
2023-03-29T20:53:03.743Z,20.56
2023-03-29T20:55:33.063Z,20.55
2023-03-29T20:58:03.506Z,20.56
2023-03-29T21:00:35.367Z,20.54
2023-03-29T21:03:04.524Z,20.53
2023-03-29T21:05:34.122Z,20.53
2023-03-29T21:08:04.220Z,20.52
2023-03-29T21:10:32.902Z,20.52
2023-03-29T21:13:03.068Z,20.52
2023-03-29T21:15:31.909Z,20.53
2023-03-29T21:18:00.592Z,20.52
2023-03-29T21:20:29.166Z,20.51
2023-03-29T21:22:57.815Z,20.52
2023-03-29T21:25:26.281Z,20.51
2023-03-29T21:27:54.714Z,20.51
2023-03-29T21:30:24.506Z,20.50
2023-03-29T21:32:52.940Z,20.50
2023-03-29T21:35:21.466Z,20.49
2023-03-29T21:37:49.889Z,20.48
2023-03-29T21:40:18.345Z,20.49
2023-03-29T21:42:46.767Z,20.48
2023-03-29T21:45:15.467Z,20.49
2023-03-29T21:47:45.366Z,20.48
2023-03-29T21:50:14.110Z,20.47
2023-03-29T21:52:42.533Z,20.48
2023-03-29T21:55:10.986Z,20.47
2023-03-29T21:57:39.418Z,20.46
2023-03-29T22:00:12.611Z,20.47
2023-03-29T22:02:42.302Z,20.45
2023-03-29T22:05:12.749Z,20.46
2023-03-29T22:07:41.100Z,20.45
2023-03-29T22:10:12.267Z,20.44
2023-03-29T22:12:41.354Z,20.45
2023-03-29T22:15:12.343Z,20.44
2023-03-29T22:17:41.359Z,20.43
2023-03-29T22:20:13.780Z,20.44
2023-03-29T22:22:46.196Z,20.44
2023-03-29T22:25:14.755Z,20.42
2023-03-29T22:27:43.873Z,20.42
2023-03-29T22:30:13.634Z,20.42
2023-03-29T22:32:42.355Z,20.41
2023-03-29T22:35:12.469Z,20.41
2023-03-29T22:37:42.563Z,20.41
2023-03-29T22:40:13.107Z,20.40
2023-03-29T22:42:41.574Z,20.41
2023-03-29T22:45:11.043Z,20.41
2023-03-29T22:47:39.475Z,20.39
2023-03-29T22:50:08.945Z,20.39
2023-03-29T22:52:38.790Z,20.40
2023-03-29T22:55:08.436Z,20.39
2023-03-29T22:57:36.810Z,20.39
2023-03-29T23:00:09.036Z,20.39
2023-03-29T23:02:38.190Z,20.38
2023-03-29T23:05:07.624Z,20.38
2023-03-29T23:07:36.940Z,20.38
2023-03-29T23:10:08.353Z,20.38
2023-03-29T23:12:37.120Z,20.38
2023-03-29T23:15:08.049Z,20.37
2023-03-29T23:17:37.074Z,20.36
2023-03-29T23:20:06.884Z,20.37
2023-03-29T23:22:36.312Z,20.37
2023-03-29T23:25:05.464Z,20.36
2023-03-29T23:27:35.496Z,20.36
2023-03-29T23:30:04.111Z,20.35
2023-03-29T23:32:32.649Z,20.37
2023-03-29T23:35:01.301Z,20.36
2023-03-29T23:37:29.804Z,20.34
2023-03-29T23:39:58.326Z,20.35
2023-03-29T23:42:26.764Z,20.36
2023-03-29T23:44:56.563Z,20.35
2023-03-29T23:47:26.991Z,20.33
2023-03-29T23:49:55.773Z,20.35
2023-03-29T23:52:24.141Z,20.34
2023-03-29T23:54:52.527Z,20.34
2023-03-29T23:57:21.342Z,20.33
2023-03-29T23:59:52.660Z,20.33
